Pindall, Arkansas
Current Conditions -  °F | °C
As of 7:20 AM on Friday 19 Dec 2014 (Local Time) from KHRO Reporting Station
Haze Haze  
Wind Chill: 33°   Ceiling: 200
Heat Index: 37°   Visibility: 2mi
Dew Point: 37°   Wind: 5mph
Humidity: 100%   Direction: 100°E
Pressure: 30.21"   Gusts: NA
Location:  36.07°N, 92.88°W
Report Text: KHRO 191320Z AUTO 10004KT 2SM BR OVC002 03/03 A3021 RMK AO2 T00280028
Loading
Personal Weather Stations






























Interactive Weather Map New forecast layout! Learn more

10-Day Weather Forecast

Advertisements
Track Severe Weather on mobile